createdAt,value
2019-04-28T00:01:22.660Z,3.49
2019-04-28T00:03:51.625Z,3.44
2019-04-28T00:06:21.133Z,3.41
2019-04-28T00:08:49.556Z,3.45
2019-04-28T00:11:17.951Z,3.47
2019-04-28T00:13:46.348Z,3.54
2019-04-28T00:16:14.750Z,3.67
2019-04-28T00:18:43.137Z,3.72
2019-04-28T00:21:20.793Z,3.75
2019-04-28T00:24:08.731Z,3.79
2019-04-28T00:26:38.774Z,3.75
2019-04-28T00:29:07.467Z,3.71
2019-04-28T00:31:36.184Z,3.68
2019-04-28T00:34:04.711Z,3.60
2019-04-28T00:36:33.094Z,3.59
2019-04-28T00:39:01.892Z,3.58
2019-04-28T00:41:30.914Z,3.59
2019-04-28T00:43:59.351Z,3.60
2019-04-28T00:46:31.121Z,3.61
2019-04-28T00:48:59.662Z,3.69
2019-04-28T00:51:28.042Z,3.78
2019-04-28T00:53:56.527Z,3.88
2019-04-28T00:56:24.913Z,3.96
2019-04-28T00:58:53.306Z,4.02
2019-04-28T01:01:40.709Z,4.12
2019-04-28T01:04:11.751Z,4.19
2019-04-28T01:06:39.940Z,4.22
2019-04-28T01:09:08.561Z,4.26
2019-04-28T01:11:37.024Z,4.30
2019-04-28T01:14:05.483Z,4.31
2019-04-28T01:16:39.857Z,4.29
2019-04-28T01:19:15.627Z,4.42
2019-04-28T01:22:02.166Z,4.67
2019-04-28T01:24:30.553Z,4.82
2019-04-28T01:27:00.487Z,4.89
2019-04-28T01:29:29.532Z,4.98
2019-04-28T01:32:15.456Z,5.04
2019-04-28T01:34:43.872Z,5.06
2019-04-28T01:37:12.258Z,5.08
2019-04-28T01:39:41.233Z,5.11
2019-04-28T01:42:10.658Z,5.15
2019-04-28T01:44:39.632Z,5.13
2019-04-28T01:47:08.056Z,5.23
2019-04-28T01:49:36.456Z,5.28
2019-04-28T01:52:04.997Z,5.30
2019-04-28T01:54:33.377Z,5.31
2019-04-28T01:57:01.789Z,5.29
2019-04-28T01:59:30.422Z,5.25
2019-04-28T02:02:00.122Z,5.26
2019-04-28T02:04:32.116Z,5.26
2019-04-28T02:06:59.814Z,5.22
2019-04-28T02:09:29.685Z,5.17
2019-04-28T02:11:58.175Z,5.11
2019-04-28T02:14:26.555Z,5.12
2019-04-28T02:16:54.957Z,5.12
2019-04-28T02:19:23.381Z,5.14
2019-04-28T02:21:55.872Z,5.11
2019-04-28T02:24:31.684Z,5.08
2019-04-28T02:27:00.971Z,5.06
2019-04-28T02:29:30.291Z,5.09
2019-04-28T02:32:01.913Z,5.05
2019-04-28T02:34:31.184Z,5.01
2019-04-28T02:37:01.390Z,5.02
2019-04-28T02:39:31.202Z,4.97
2019-04-28T02:42:01.393Z,4.98
2019-04-28T02:44:34.116Z,4.99
2019-04-28T02:47:00.780Z,4.99
2019-04-28T02:49:33.996Z,5.01
2019-04-28T02:52:04.113Z,5.00
2019-04-28T02:54:32.495Z,4.95
2019-04-28T02:57:01.415Z,5.01
2019-04-28T02:59:30.529Z,5.08
2019-04-28T03:02:00.659Z,5.08
2019-04-28T03:04:30.831Z,5.06
2019-04-28T03:07:01.331Z,5.07
2019-04-28T03:09:30.553Z,5.11
2019-04-28T03:12:01.430Z,5.10
2019-04-28T03:14:30.650Z,5.05
2019-04-28T03:17:00.846Z,5.03
2019-04-28T03:19:33.788Z,5.14
2019-04-28T03:22:01.314Z,5.18
2019-04-28T03:24:31.530Z,5.17
2019-04-28T03:27:07.103Z,5.18
2019-04-28T03:29:50.437Z,5.14
2019-04-28T03:32:37.097Z,5.14
2019-04-28T03:34:53.735Z,5.14
2019-04-28T03:37:23.943Z,5.30
2019-04-28T03:39:51.166Z,5.32
2019-04-28T03:42:21.559Z,5.34
2019-04-28T03:44:51.032Z,5.32
2019-04-28T03:47:21.438Z,5.29
2019-04-28T03:49:50.741Z,5.22
2019-04-28T03:52:21.358Z,5.14
2019-04-28T03:54:50.813Z,5.08
2019-04-28T03:57:21.498Z,5.01
2019-04-28T03:59:51.160Z,4.97
2019-04-28T04:02:22.972Z,4.98
2019-04-28T04:04:52.665Z,5.02
2019-04-28T04:07:21.517Z,5.08
2019-04-28T04:09:57.968Z,5.14
2019-04-28T04:12:41.199Z,5.15
2019-04-28T04:15:28.031Z,5.22
2019-04-28T04:18:07.060Z,5.24
2019-04-28T04:20:35.459Z,5.26
2019-04-28T04:23:03.841Z,5.25
2019-04-28T04:25:32.230Z,5.28
2019-04-28T04:28:03.693Z,5.36
2019-04-28T04:30:31.315Z,5.48
2019-04-28T04:33:01.222Z,5.55
2019-04-28T04:35:31.624Z,5.53
2019-04-28T04:38:00.607Z,5.51
2019-04-28T04:40:31.614Z,5.53
2019-04-28T04:43:01.536Z,5.57
2019-04-28T04:45:30.590Z,5.60
2019-04-28T04:48:00.581Z,5.57
2019-04-28T04:50:31.310Z,5.59
2019-04-28T04:53:02.339Z,5.57
2019-04-28T04:55:30.841Z,5.58
2019-04-28T04:58:00.833Z,5.70
2019-04-28T05:00:33.803Z,5.76
2019-04-28T05:03:07.105Z,5.77
2019-04-28T05:05:40.438Z,5.85
2019-04-28T05:08:10.704Z,5.91
2019-04-28T05:10:40.346Z,6.01
2019-04-28T05:13:10.192Z,6.10
2019-04-28T05:15:40.064Z,6.15
2019-04-28T05:18:10.142Z,6.24
2019-04-28T05:20:40.387Z,6.25
2019-04-28T05:23:13.451Z,6.26
2019-04-28T05:25:43.738Z,6.26
2019-04-28T05:28:12.138Z,6.24
2019-04-28T05:30:42.941Z,6.28
2019-04-28T05:33:12.299Z,6.29
2019-04-28T05:35:50.103Z,6.29
2019-04-28T05:38:20.120Z,6.27
2019-04-28T05:40:49.831Z,6.28
2019-04-28T05:43:19.585Z,6.30
2019-04-28T05:45:49.861Z,6.29
2019-04-28T05:48:20.087Z,6.33
2019-04-28T05:50:52.666Z,6.34
2019-04-28T05:53:22.866Z,6.25
2019-04-28T05:56:10.762Z,6.24
2019-04-28T05:58:46.388Z,6.21
2019-04-28T06:01:16.409Z,6.16
2019-04-28T06:03:45.766Z,6.18
2019-04-28T06:06:14.241Z,6.17
2019-04-28T06:08:44.274Z,6.13
2019-04-28T06:11:32.580Z,6.10
2019-04-28T06:14:01.303Z,6.01
2019-04-28T06:16:30.520Z,6.01
2019-04-28T06:18:59.970Z,6.03
2019-04-28T06:21:28.616Z,6.03
2019-04-28T06:23:57.010Z,6.04
2019-04-28T06:26:25.476Z,6.02
2019-04-28T06:28:53.855Z,6.08
2019-04-28T06:31:22.237Z,6.09
2019-04-28T06:33:50.834Z,6.16
2019-04-28T06:36:20.280Z,6.21
2019-04-28T06:38:48.657Z,6.22
2019-04-28T06:41:17.055Z,6.22
2019-04-28T06:43:45.433Z,6.20
2019-04-28T06:46:13.818Z,6.18
2019-04-28T06:48:42.232Z,6.23
2019-04-28T06:51:10.621Z,6.22
2019-04-28T06:53:39.024Z,6.30
2019-04-28T06:56:07.459Z,6.31
2019-04-28T06:58:35.843Z,6.23
2019-04-28T07:01:04.300Z,6.21
2019-04-28T07:03:32.727Z,6.21
2019-04-28T07:06:01.108Z,6.21
2019-04-28T07:08:29.497Z,6.25
2019-04-28T07:10:57.984Z,6.28
2019-04-28T07:13:26.704Z,6.35
2019-04-28T07:15:55.151Z,6.46
2019-04-28T07:18:23.574Z,6.45
2019-04-28T07:20:56.359Z,6.41
2019-04-28T07:23:24.761Z,6.41
2019-04-28T07:25:53.536Z,6.45
2019-04-28T07:28:21.917Z,6.43
2019-04-28T07:30:50.305Z,6.48
2019-04-28T07:33:18.720Z,6.45
2019-04-28T07:35:47.105Z,6.45
2019-04-28T07:38:15.496Z,6.49
2019-04-28T07:40:43.899Z,6.50
2019-04-28T07:43:12.276Z,6.58
2019-04-28T07:45:40.662Z,6.47
2019-04-28T07:48:09.833Z,6.42
2019-04-28T07:50:38.266Z,6.41
2019-04-28T07:53:23.635Z,6.49
2019-04-28T07:55:52.038Z,6.51
2019-04-28T07:58:21.350Z,6.46
2019-04-28T08:00:49.832Z,6.41
2019-04-28T08:03:18.224Z,6.43
2019-04-28T08:05:46.679Z,6.50
2019-04-28T08:08:15.082Z,6.53
2019-04-28T08:10:43.480Z,6.56
2019-04-28T08:13:11.881Z,6.62
2019-04-28T08:15:40.282Z,6.79
2019-04-28T08:18:08.666Z,6.94
2019-04-28T08:20:37.059Z,7.06
2019-04-28T08:23:05.543Z,7.17
2019-04-28T08:25:33.930Z,7.29
2019-04-28T08:28:02.341Z,7.43
2019-04-28T08:30:30.739Z,7.55
2019-04-28T08:33:03.673Z,7.55
2019-04-28T08:35:32.055Z,7.58
2019-04-28T08:38:00.474Z,7.54
2019-04-28T08:40:28.843Z,7.47
2019-04-28T08:42:57.235Z,7.44
2019-04-28T08:45:25.635Z,7.48
2019-04-28T08:47:54.021Z,7.54
2019-04-28T08:50:22.403Z,7.64
2019-04-28T08:52:51.124Z,7.82
2019-04-28T08:55:19.509Z,7.95
2019-04-28T08:57:47.907Z,8.15
2019-04-28T09:00:19.027Z,8.22
2019-04-28T09:02:47.421Z,8.27
2019-04-28T09:05:15.878Z,8.30
2019-04-28T09:07:44.283Z,8.26
2019-04-28T09:10:12.667Z,8.14
2019-04-28T09:12:41.067Z,8.14
2019-04-28T09:15:09.809Z,8.14
2019-04-28T09:17:38.191Z,8.18
2019-04-28T09:20:07.421Z,8.30
2019-04-28T09:22:35.837Z,8.27
2019-04-28T09:25:05.851Z,8.27
2019-04-28T09:27:34.314Z,8.32
2019-04-28T09:30:03.556Z,8.54
2019-04-28T09:32:31.955Z,8.73
2019-04-28T09:35:00.335Z,8.79
2019-04-28T09:37:28.747Z,8.80
2019-04-28T09:39:58.776Z,8.72
2019-04-28T09:42:31.974Z,8.74
2019-04-28T09:45:19.014Z,8.83
2019-04-28T09:47:47.412Z,8.84
2019-04-28T09:50:15.801Z,8.62
2019-04-28T09:52:44.481Z,8.62
2019-04-28T09:55:13.149Z,8.50
2019-04-28T09:57:41.599Z,8.49
2019-04-28T10:00:11.367Z,8.43
2019-04-28T10:02:39.757Z,8.43
2019-04-28T10:05:08.990Z,8.53
2019-04-28T10:07:37.408Z,8.54
2019-04-28T10:10:09.653Z,8.59
2019-04-28T10:12:38.067Z,8.61
2019-04-28T10:15:09.041Z,8.60
2019-04-28T10:17:37.859Z,8.59
2019-04-28T10:20:07.590Z,8.53
2019-04-28T10:22:36.129Z,8.49
2019-04-28T10:25:07.966Z,8.39
2019-04-28T10:27:36.424Z,8.24
2019-04-28T10:30:09.526Z,8.21
2019-04-28T10:32:38.477Z,8.14
2019-04-28T10:35:07.791Z,8.15
2019-04-28T10:37:36.276Z,8.20
2019-04-28T10:40:14.309Z,8.30
2019-04-28T10:42:42.799Z,8.42
2019-04-28T10:45:12.965Z,8.66
2019-04-28T10:47:41.426Z,8.81
2019-04-28T10:50:10.360Z,8.97
2019-04-28T10:52:38.760Z,9.22
2019-04-28T10:55:07.282Z,9.51
2019-04-28T10:57:35.687Z,9.78
2019-04-28T11:00:06.399Z,9.99
2019-04-28T11:02:34.779Z,10.05
2019-04-28T11:05:09.035Z,10.07
2019-04-28T11:07:37.631Z,10.26
2019-04-28T11:10:15.233Z,10.29
2019-04-28T11:12:43.615Z,10.47
2019-04-28T11:15:14.092Z,10.55
2019-04-28T11:17:42.570Z,10.47
2019-04-28T11:20:11.026Z,10.53
2019-04-28T11:22:39.421Z,10.64
2019-04-28T11:25:08.182Z,10.61
2019-04-28T11:27:36.684Z,10.74
2019-04-28T11:30:08.088Z,10.90
2019-04-28T11:32:37.654Z,11.00
2019-04-28T11:35:20.608Z,10.90
2019-04-28T11:37:38.883Z,10.94
2019-04-28T11:40:07.440Z,10.96
2019-04-28T11:42:35.825Z,11.02
2019-04-28T11:45:05.280Z,11.10
2019-04-28T11:47:33.686Z,11.18
2019-04-28T11:50:02.329Z,11.27
2019-04-28T11:52:31.527Z,11.42
2019-04-28T11:54:59.957Z,11.61
2019-04-28T11:57:28.364Z,11.69
2019-04-28T11:59:56.909Z,11.55
2019-04-28T12:02:25.388Z,11.41
2019-04-28T12:04:55.368Z,11.36
2019-04-28T12:07:23.889Z,11.41
2019-04-28T12:10:06.571Z,11.54
2019-04-28T12:12:53.998Z,11.57
2019-04-28T12:15:24.056Z,11.51
2019-04-28T12:17:56.950Z,11.39
2019-04-28T12:20:26.215Z,11.47
2019-04-28T12:22:54.629Z,11.44
2019-04-28T12:25:23.028Z,11.34
2019-04-28T12:27:51.454Z,11.44
2019-04-28T12:30:19.901Z,11.63
2019-04-28T12:32:48.291Z,11.78
2019-04-28T12:35:18.442Z,11.92
2019-04-28T12:37:46.968Z,11.95
2019-04-28T12:40:15.696Z,12.02
2019-04-28T12:42:44.094Z,12.27
2019-04-28T12:45:12.648Z,12.42
2019-04-28T12:47:41.043Z,12.44
2019-04-28T12:50:11.226Z,12.46
2019-04-28T12:52:39.712Z,12.56
2019-04-28T12:55:08.376Z,12.56
2019-04-28T12:57:37.091Z,12.59
2019-04-28T13:00:26.833Z,12.68
2019-04-28T13:02:56.857Z,12.57
2019-04-28T13:05:25.255Z,12.50
2019-04-28T13:07:53.665Z,12.51
2019-04-28T13:10:22.052Z,12.52
2019-04-28T13:12:50.453Z,12.48
2019-04-28T13:15:18.940Z,12.39
2019-04-28T13:17:47.332Z,12.47
2019-04-28T13:20:15.784Z,12.58
2019-04-28T13:22:44.531Z,12.50
2019-04-28T13:25:13.078Z,12.32
2019-04-28T13:27:41.437Z,12.34
2019-04-28T13:30:10.086Z,12.22
2019-04-28T13:32:38.482Z,12.21
2019-04-28T13:35:07.311Z,12.29
2019-04-28T13:37:35.690Z,12.41
2019-04-28T13:40:07.471Z,12.53
2019-04-28T13:42:35.880Z,12.66
2019-04-28T13:45:08.160Z,12.88
2019-04-28T13:47:36.663Z,12.99
2019-04-28T13:50:14.517Z,12.85
2019-04-28T13:52:42.921Z,12.72
2019-04-28T13:55:18.855Z,12.52
2019-04-28T13:57:47.203Z,12.46
2019-04-28T14:00:33.770Z,12.51
2019-04-28T14:03:03.815Z,12.61
2019-04-28T14:05:33.831Z,12.61
2019-04-28T14:08:02.718Z,12.69
2019-04-28T14:10:31.444Z,12.68
2019-04-28T14:12:59.846Z,12.73
2019-04-28T14:15:28.279Z,12.89
2019-04-28T14:17:56.620Z,13.11
2019-04-28T14:20:25.011Z,13.25
2019-04-28T14:22:53.711Z,13.31
2019-04-28T14:25:22.216Z,13.21
2019-04-28T14:27:50.583Z,13.42
2019-04-28T14:30:19.121Z,13.54
2019-04-28T14:32:47.503Z,13.49
2019-04-28T14:35:16.042Z,13.36
2019-04-28T14:37:44.596Z,13.19
2019-04-28T14:40:13.242Z,13.06
2019-04-28T14:42:41.637Z,12.89
2019-04-28T14:45:11.240Z,12.72
2019-04-28T14:47:39.737Z,12.86
2019-04-28T14:50:08.312Z,12.83
2019-04-28T14:52:36.720Z,12.81
2019-04-28T14:55:08.377Z,12.90
2019-04-28T14:57:37.004Z,12.94
2019-04-28T15:00:07.781Z,13.07
2019-04-28T15:02:52.899Z,13.02
2019-04-28T15:05:23.010Z,13.20
2019-04-28T15:08:09.534Z,13.34
2019-04-28T15:10:55.704Z,13.59
2019-04-28T15:13:25.068Z,13.62
2019-04-28T15:15:53.455Z,13.78
2019-04-28T15:18:21.923Z,13.97
2019-04-28T15:20:50.311Z,14.14
2019-04-28T15:23:19.660Z,14.01
2019-04-28T15:25:48.072Z,14.17
2019-04-28T15:28:16.720Z,13.73
2019-04-28T15:30:45.121Z,13.13
2019-04-28T15:33:13.599Z,13.13
2019-04-28T15:35:42.067Z,13.13
2019-04-28T15:38:10.449Z,12.82
2019-04-28T15:40:39.171Z,12.58
2019-04-28T15:43:07.566Z,12.44
2019-04-28T15:45:35.956Z,12.33
2019-04-28T15:48:04.423Z,12.23
2019-04-28T15:50:32.820Z,12.34
2019-04-28T15:53:01.268Z,12.38
2019-04-28T15:55:37.385Z,12.43
2019-04-28T15:58:23.809Z,12.51
2019-04-28T16:00:52.216Z,12.53
2019-04-28T16:03:20.610Z,12.60
2019-04-28T16:05:49.008Z,12.59
2019-04-28T16:08:17.421Z,12.56
2019-04-28T16:10:45.816Z,12.59
2019-04-28T16:13:14.202Z,12.50
2019-04-28T16:15:42.618Z,12.55
2019-04-28T16:18:11.009Z,12.58
2019-04-28T16:20:39.474Z,12.55
2019-04-28T16:23:07.961Z,12.64
2019-04-28T16:25:37.296Z,12.66
2019-04-28T16:28:05.678Z,12.53
2019-04-28T16:30:34.377Z,12.50
2019-04-28T16:33:02.760Z,12.43
2019-04-28T16:35:31.159Z,12.40
2019-04-28T16:37:59.558Z,12.38
2019-04-28T16:40:30.512Z,12.33
2019-04-28T16:43:01.803Z,12.37
2019-04-28T16:45:30.215Z,12.25
2019-04-28T16:47:58.603Z,12.03
2019-04-28T16:50:26.985Z,12.09
2019-04-28T16:52:55.478Z,12.05
2019-04-28T16:55:37.470Z,11.99
2019-04-28T16:58:07.529Z,11.92
2019-04-28T17:00:53.501Z,11.89
2019-04-28T17:03:22.364Z,11.79
2019-04-28T17:05:50.760Z,11.60
2019-04-28T17:08:19.392Z,11.39
2019-04-28T17:10:47.808Z,10.95
2019-04-28T17:13:16.199Z,10.77
2019-04-28T17:15:44.654Z,10.59
2019-04-28T17:18:13.086Z,10.51
2019-04-28T17:20:41.465Z,10.41
2019-04-28T17:23:09.854Z,10.38
2019-04-28T17:25:38.253Z,10.30
2019-04-28T17:28:07.089Z,10.25
2019-04-28T17:30:35.547Z,10.09
2019-04-28T17:33:04.043Z,10.04
2019-04-28T17:35:33.107Z,10.02
2019-04-28T17:38:06.822Z,10.01
2019-04-28T17:40:32.237Z,9.97
2019-04-28T17:43:00.596Z,9.87
2019-04-28T17:45:28.983Z,9.75
2019-04-28T17:47:59.179Z,9.68
2019-04-28T17:50:29.703Z,9.61
2019-04-28T17:52:58.069Z,9.51
2019-04-28T17:55:26.479Z,9.43
2019-04-28T17:57:54.874Z,9.36
2019-04-28T18:00:39.848Z,9.34
2019-04-28T18:03:15.774Z,9.30
2019-04-28T18:05:58.130Z,9.25
2019-04-28T18:08:26.795Z,9.20
2019-04-28T18:10:55.181Z,9.14
2019-04-28T18:13:23.607Z,9.07
2019-04-28T18:15:56.364Z,9.05
2019-04-28T18:18:28.809Z,9.03
2019-04-28T18:20:57.217Z,9.04
2019-04-28T18:23:25.606Z,9.21
2019-04-28T18:25:54.070Z,9.37
2019-04-28T18:28:22.427Z,9.45
2019-04-28T18:30:52.448Z,9.43
2019-04-28T18:33:28.669Z,9.36
2019-04-28T18:35:58.833Z,9.29
2019-04-28T18:38:35.087Z,9.19
2019-04-28T18:41:06.649Z,9.08
2019-04-28T18:43:45.190Z,8.95
2019-04-28T18:46:16.470Z,8.82
2019-04-28T18:48:44.989Z,8.72
2019-04-28T18:51:13.442Z,8.65
2019-04-28T18:53:44.406Z,8.60
2019-04-28T18:56:11.968Z,8.54
2019-04-28T18:58:40.358Z,8.44
2019-04-28T19:01:10.406Z,8.34
2019-04-28T19:03:38.798Z,8.22
2019-04-28T19:06:07.179Z,8.13
2019-04-28T19:08:48.536Z,8.04
2019-04-28T19:11:25.424Z,8.00
2019-04-28T19:13:55.497Z,7.93
2019-04-28T19:16:41.709Z,7.87
2019-04-28T19:19:17.335Z,7.78
2019-04-28T19:21:56.101Z,7.73
2019-04-28T19:24:25.725Z,7.70
2019-04-28T19:26:54.545Z,7.70
2019-04-28T19:29:22.999Z,7.70
2019-04-28T19:31:51.426Z,7.69
2019-04-28T19:34:19.800Z,7.67
2019-04-28T19:36:48.183Z,7.66
2019-04-28T19:39:16.597Z,7.63
2019-04-28T19:41:44.979Z,7.57
2019-04-28T19:44:13.357Z,7.56
2019-04-28T19:46:41.849Z,7.62
2019-04-28T19:49:10.298Z,7.77
2019-04-28T19:51:38.681Z,8.02
2019-04-28T19:54:07.669Z,8.19
2019-04-28T19:56:43.483Z,8.20
2019-04-28T19:59:16.446Z,8.16
2019-04-28T20:01:44.831Z,8.09
2019-04-28T20:04:13.211Z,8.16
2019-04-28T20:06:41.616Z,8.20
2019-04-28T20:09:10.157Z,8.17
2019-04-28T20:11:38.536Z,8.13
2019-04-28T20:14:07.012Z,8.09
2019-04-28T20:16:35.403Z,8.06
2019-04-28T20:19:03.858Z,8.06
2019-04-28T20:21:32.344Z,8.10
2019-04-28T20:24:00.737Z,8.06
2019-04-28T20:26:29.142Z,7.98
2019-04-28T20:28:57.647Z,7.87
2019-04-28T20:31:26.041Z,7.79
2019-04-28T20:33:54.425Z,7.79
2019-04-28T20:36:33.222Z,7.76
2019-04-28T20:39:03.227Z,7.71
2019-04-28T20:41:31.625Z,7.68
2019-04-28T20:44:00.070Z,7.65
2019-04-28T20:46:28.466Z,7.59
2019-04-28T20:48:56.863Z,7.56
2019-04-28T20:51:25.384Z,7.59
2019-04-28T20:53:54.996Z,7.58
2019-04-28T20:56:23.417Z,7.58
2019-04-28T20:58:51.915Z,7.60
2019-04-28T21:01:20.312Z,7.59
2019-04-28T21:03:48.707Z,7.65
2019-04-28T21:06:17.139Z,7.71
2019-04-28T21:08:45.519Z,7.69
2019-04-28T21:11:14.113Z,7.65
2019-04-28T21:13:42.547Z,7.57
2019-04-28T21:16:10.941Z,7.43
2019-04-28T21:18:39.331Z,7.35
2019-04-28T21:21:07.744Z,7.27
2019-04-28T21:23:36.138Z,7.17
2019-04-28T21:26:04.526Z,7.06
2019-04-28T21:28:33.132Z,6.94
2019-04-28T21:31:01.602Z,6.80
2019-04-28T21:33:29.987Z,6.66
2019-04-28T21:35:58.391Z,6.54
2019-04-28T21:38:26.783Z,6.44
2019-04-28T21:40:55.200Z,6.35
2019-04-28T21:43:30.657Z,6.26
2019-04-28T21:46:17.228Z,6.21
2019-04-28T21:48:53.047Z,6.32
2019-04-28T21:51:21.429Z,6.42
2019-04-28T21:53:49.999Z,6.48
2019-04-28T21:56:18.393Z,6.40
2019-04-28T21:58:46.853Z,6.25
2019-04-28T22:01:18.803Z,6.07
2019-04-28T22:03:47.480Z,5.92
2019-04-28T22:06:15.940Z,5.74
2019-04-28T22:08:44.489Z,5.63
2019-04-28T22:11:12.880Z,5.51
2019-04-28T22:13:41.273Z,5.43
2019-04-28T22:16:09.713Z,5.35
2019-04-28T22:18:38.103Z,5.40
2019-04-28T22:21:06.583Z,5.50
2019-04-28T22:23:53.015Z,5.49
2019-04-28T22:26:39.221Z,5.44
2019-04-28T22:29:07.624Z,5.39
2019-04-28T22:31:36.012Z,5.34
2019-04-28T22:34:04.472Z,5.32
2019-04-28T22:36:33.308Z,5.30
2019-04-28T22:39:01.700Z,5.23
2019-04-28T22:41:30.180Z,5.07
2019-04-28T22:43:58.606Z,4.88
2019-04-28T22:46:26.992Z,4.75
2019-04-28T22:48:57.096Z,4.67
2019-04-28T22:51:25.575Z,4.62
2019-04-28T22:53:53.959Z,4.59
2019-04-28T22:56:24.001Z,4.63
2019-04-28T22:58:54.155Z,4.66
2019-04-28T23:01:27.025Z,4.58
2019-04-28T23:04:03.076Z,4.50
2019-04-28T23:06:31.611Z,4.36
2019-04-28T23:09:00.002Z,4.24
2019-04-28T23:11:28.407Z,4.27
2019-04-28T23:13:56.803Z,4.35
2019-04-28T23:16:25.204Z,4.55
2019-04-28T23:18:53.750Z,4.56
2019-04-28T23:21:32.913Z,4.50
2019-04-28T23:24:01.428Z,4.43
2019-04-28T23:26:29.954Z,4.28
2019-04-28T23:28:58.352Z,4.11
2019-04-28T23:31:26.765Z,4.01
2019-04-28T23:33:55.157Z,3.93
2019-04-28T23:36:23.599Z,3.88
2019-04-28T23:38:52.015Z,3.89
2019-04-28T23:41:31.229Z,3.90
2019-04-28T23:43:59.650Z,3.89
2019-04-28T23:46:29.674Z,3.86
2019-04-28T23:48:58.130Z,3.85
2019-04-28T23:51:28.188Z,3.85
2019-04-28T23:54:01.150Z,3.86
2019-04-28T23:56:29.528Z,3.92
2019-04-28T23:58:57.951Z,4.06
